createdAt,value
2018-07-22T00:02:08.917Z,90.80
2018-07-22T00:04:37.592Z,91.00
2018-07-22T00:07:06.429Z,91.00
2018-07-22T00:09:35.170Z,90.60
2018-07-22T00:12:03.860Z,91.20
2018-07-22T00:14:32.492Z,91.20
2018-07-22T00:17:01.205Z,91.40
2018-07-22T00:19:29.860Z,91.60
2018-07-22T00:21:58.491Z,91.50
2018-07-22T00:24:27.196Z,91.60
2018-07-22T00:26:55.880Z,91.90
2018-07-22T00:29:24.419Z,91.90
2018-07-22T00:31:53.020Z,91.90
2018-07-22T00:34:21.684Z,92.00
2018-07-22T00:36:50.303Z,92.10
2018-07-22T00:39:18.974Z,92.30
2018-07-22T00:41:47.848Z,92.30
2018-07-22T00:44:16.573Z,92.50
2018-07-22T00:46:45.247Z,92.40
2018-07-22T00:49:13.864Z,92.60
2018-07-22T00:51:43.377Z,92.70
2018-07-22T00:54:12.003Z,92.70
2018-07-22T00:56:40.741Z,92.80
2018-07-22T00:59:09.369Z,92.80
2018-07-22T01:01:37.980Z,92.80
2018-07-22T01:04:06.624Z,92.90
2018-07-22T01:06:35.239Z,93.00
2018-07-22T01:09:04.787Z,93.00
2018-07-22T01:11:33.505Z,93.00
2018-07-22T01:14:02.172Z,93.00
2018-07-22T01:16:30.845Z,93.00
2018-07-22T01:18:59.560Z,93.40
2018-07-22T01:21:28.520Z,93.50
2018-07-22T01:23:57.209Z,93.70
2018-07-22T01:26:25.842Z,93.90
2018-07-22T01:31:23.388Z,94.00
2018-07-22T01:33:52.035Z,94.10
2018-07-22T01:36:20.685Z,93.90
2018-07-22T01:38:49.268Z,94.20
2018-07-22T01:41:17.964Z,94.30
2018-07-22T01:43:46.835Z,94.40
2018-07-22T01:48:44.509Z,94.70
2018-07-22T01:51:13.130Z,94.90
2018-07-22T01:53:41.748Z,94.70
2018-07-22T01:56:10.355Z,94.70
2018-07-22T01:58:38.967Z,95.00
2018-07-22T02:01:07.713Z,95.40
2018-07-22T02:03:36.346Z,95.90
2018-07-22T02:06:04.981Z,96.40
2018-07-22T02:08:33.624Z,96.80
2018-07-22T02:11:02.261Z,97.30
2018-07-22T02:13:30.885Z,97.30
2018-07-22T02:18:27.820Z,98.80
2018-07-22T02:20:56.517Z,99.20
2018-07-22T02:23:25.132Z,99.20
2018-07-22T02:25:53.713Z,99.40
2018-07-22T02:28:22.324Z,99.40
2018-07-22T02:30:50.970Z,99.50
2018-07-22T02:33:19.591Z,99.90
2018-07-22T02:35:48.208Z,99.90
2018-07-22T02:38:16.833Z,99.90
2018-07-22T02:40:45.525Z,99.90
2018-07-22T02:43:14.133Z,99.90
2018-07-22T02:45:43.378Z,99.90
2018-07-22T02:48:12.052Z,99.90
2018-07-22T02:50:40.737Z,99.90
2018-07-22T02:53:09.382Z,99.90
2018-07-22T02:55:37.999Z,99.90
2018-07-22T02:58:06.660Z,99.90
2018-07-22T03:00:35.320Z,99.90
2018-07-22T03:03:03.934Z,99.90
2018-07-22T03:05:32.625Z,99.90
2018-07-22T03:08:01.229Z,99.90
2018-07-22T03:10:29.763Z,99.90
2018-07-22T03:12:58.529Z,99.90
2018-07-22T03:15:27.225Z,99.90
2018-07-22T03:17:55.828Z,99.90
2018-07-22T03:20:24.552Z,99.90
2018-07-22T03:22:53.188Z,99.90
2018-07-22T03:25:21.887Z,99.90
2018-07-22T03:27:50.563Z,99.90
2018-07-22T03:30:19.160Z,99.90
2018-07-22T03:32:47.790Z,99.90
2018-07-22T03:35:16.395Z,99.90
2018-07-22T03:37:45.073Z,99.90
2018-07-22T03:40:13.740Z,99.90
2018-07-22T03:42:42.467Z,99.90
2018-07-22T03:45:11.357Z,99.90
2018-07-22T03:47:39.949Z,99.90
2018-07-22T03:50:08.550Z,99.90
2018-07-22T03:52:37.131Z,99.90
2018-07-22T03:55:05.766Z,99.90
2018-07-22T03:57:34.442Z,99.90
2018-07-22T04:00:03.187Z,99.90
2018-07-22T04:02:31.785Z,99.90
2018-07-22T04:05:00.382Z,99.90
2018-07-22T04:07:29.024Z,99.90
2018-07-22T04:09:57.689Z,99.90
2018-07-22T04:12:26.279Z,99.90
2018-07-22T04:14:54.940Z,99.90
2018-07-22T04:17:23.554Z,99.90
2018-07-22T04:19:52.328Z,99.90
2018-07-22T04:22:21.152Z,99.90
2018-07-22T04:24:49.752Z,99.90
2018-07-22T04:27:18.382Z,99.90
2018-07-22T04:29:46.987Z,99.90
2018-07-22T04:32:15.593Z,99.90
2018-07-22T04:34:44.282Z,99.90
2018-07-22T04:37:12.936Z,99.90
2018-07-22T04:39:41.560Z,99.90
2018-07-22T04:42:10.204Z,99.90
2018-07-22T04:44:38.883Z,99.90
2018-07-22T04:47:07.512Z,99.90
2018-07-22T04:52:04.515Z,99.90
2018-07-22T04:54:33.168Z,99.90
2018-07-22T04:57:01.844Z,99.90
2018-07-22T04:59:30.501Z,99.90
2018-07-22T05:01:59.101Z,99.90
2018-07-22T05:04:27.777Z,99.90
2018-07-22T05:06:57.470Z,99.90
2018-07-22T05:09:26.104Z,99.90
2018-07-22T05:11:54.882Z,99.90
2018-07-22T05:14:23.518Z,99.90
2018-07-22T05:16:52.455Z,99.90
2018-07-22T05:19:21.071Z,99.90
2018-07-22T05:21:49.712Z,99.90
2018-07-22T05:24:18.340Z,99.90
2018-07-22T05:26:47.499Z,99.90
2018-07-22T05:29:16.135Z,99.90
2018-07-22T05:31:44.711Z,99.90
2018-07-22T05:34:13.324Z,99.90
2018-07-22T05:36:41.974Z,99.90
2018-07-22T05:39:12.324Z,99.90
2018-07-22T05:41:41.471Z,99.90
2018-07-22T05:44:10.091Z,99.90
2018-07-22T05:46:38.815Z,99.90
2018-07-22T05:49:07.426Z,99.90
2018-07-22T05:51:36.173Z,99.90
2018-07-22T05:54:04.978Z,99.90
2018-07-22T05:56:33.546Z,99.90
2018-07-22T05:59:02.213Z,99.90
2018-07-22T06:01:30.924Z,99.90
2018-07-22T06:03:59.572Z,99.90
2018-07-22T06:06:28.228Z,99.90
2018-07-22T06:08:56.819Z,99.60
2018-07-22T06:11:25.437Z,99.40
2018-07-22T06:13:54.107Z,99.00
2018-07-22T06:16:22.706Z,98.90
2018-07-22T06:18:51.366Z,98.40
2018-07-22T06:21:20.367Z,98.20
2018-07-22T06:23:48.994Z,98.40
2018-07-22T06:26:17.820Z,97.60
2018-07-22T06:28:46.462Z,97.40
2018-07-22T06:31:15.139Z,97.60
2018-07-22T06:33:43.756Z,96.80
2018-07-22T06:36:12.649Z,96.10
2018-07-22T06:38:41.256Z,95.70
2018-07-22T06:41:09.887Z,95.40
2018-07-22T06:43:38.565Z,94.90
2018-07-22T06:46:07.394Z,94.60
2018-07-22T06:48:36.063Z,94.90
2018-07-22T06:51:04.718Z,96.00
2018-07-22T06:53:33.501Z,96.00
2018-07-22T06:56:02.172Z,95.80
2018-07-22T06:58:30.765Z,95.50
2018-07-22T07:00:59.473Z,95.10
2018-07-22T07:03:28.027Z,95.30
2018-07-22T07:05:56.617Z,95.60
2018-07-22T07:08:25.288Z,94.60
2018-07-22T07:10:53.968Z,94.90
2018-07-22T07:13:22.564Z,95.20
2018-07-22T07:15:51.310Z,94.90
2018-07-22T07:18:19.965Z,95.20
2018-07-22T07:20:48.645Z,94.70
2018-07-22T07:23:18.159Z,94.70
2018-07-22T07:25:46.724Z,93.50
2018-07-22T07:28:15.388Z,94.40
2018-07-22T07:30:44.104Z,93.00
2018-07-22T07:33:13.026Z,93.00
2018-07-22T07:35:41.613Z,92.00
2018-07-22T07:38:10.468Z,93.30
2018-07-22T07:40:39.912Z,91.80
2018-07-22T07:43:08.502Z,91.60
2018-07-22T07:45:37.123Z,91.30
2018-07-22T07:48:06.164Z,91.20
2018-07-22T07:50:34.804Z,91.20
2018-07-22T07:53:04.404Z,90.50
2018-07-22T07:55:33.000Z,91.10
2018-07-22T07:58:01.694Z,91.50
2018-07-22T08:00:30.353Z,90.20
2018-07-22T08:02:59.912Z,90.10
2018-07-22T08:05:28.657Z,90.20
2018-07-22T08:07:57.307Z,88.20
2018-07-22T08:10:25.939Z,87.90
2018-07-22T08:12:54.651Z,88.00
2018-07-22T08:15:23.256Z,87.80
2018-07-22T08:17:51.994Z,86.20
2018-07-22T08:20:20.720Z,87.20
2018-07-22T08:25:17.795Z,83.80
2018-07-22T08:27:46.428Z,80.90
2018-07-22T08:30:15.125Z,82.30
2018-07-22T08:32:43.760Z,79.60
2018-07-22T08:35:12.460Z,79.60
2018-07-22T08:37:41.129Z,81.60
2018-07-22T08:40:09.800Z,81.20
2018-07-22T08:42:38.741Z,81.20
2018-07-22T08:45:07.487Z,79.60
2018-07-22T08:47:36.222Z,78.40
2018-07-22T08:50:05.235Z,81.30
2018-07-22T08:52:33.900Z,79.40
2018-07-22T08:55:02.539Z,78.90
2018-07-22T08:57:31.209Z,75.20
2018-07-22T08:59:59.868Z,76.20
2018-07-22T09:02:28.700Z,75.80
2018-07-22T09:04:57.367Z,75.50
2018-07-22T09:07:26.110Z,75.00
2018-07-22T09:09:54.711Z,72.70
2018-07-22T09:12:23.376Z,74.00
2018-07-22T09:14:52.007Z,71.20
2018-07-22T09:17:20.668Z,71.10
2018-07-22T09:19:49.275Z,68.00
2018-07-22T09:22:17.919Z,68.30
2018-07-22T09:24:46.544Z,69.60
2018-07-22T09:27:15.976Z,64.80
2018-07-22T09:29:44.596Z,64.40
2018-07-22T09:32:13.259Z,66.60
2018-07-22T09:34:41.864Z,67.30
2018-07-22T09:37:10.484Z,65.40
2018-07-22T09:39:39.114Z,63.60
2018-07-22T09:42:07.794Z,64.10
2018-07-22T09:44:36.460Z,64.20
2018-07-22T09:47:05.624Z,63.00
2018-07-22T09:49:34.405Z,60.60
2018-07-22T09:52:03.029Z,61.70
2018-07-22T09:54:31.776Z,63.30
2018-07-22T09:57:00.407Z,60.80
2018-07-22T09:59:29.093Z,63.10
2018-07-22T10:01:57.719Z,63.20
2018-07-22T10:04:27.384Z,60.70
2018-07-22T10:06:56.053Z,63.30
2018-07-22T10:09:24.715Z,66.10
2018-07-22T10:11:53.316Z,64.80
2018-07-22T10:14:22.298Z,67.70
2018-07-22T10:16:50.854Z,64.10
2018-07-22T10:19:19.444Z,64.80
2018-07-22T10:21:48.287Z,61.80
2018-07-22T10:24:16.962Z,62.70
2018-07-22T10:26:45.569Z,62.10
2018-07-22T10:31:43.076Z,63.00
2018-07-22T10:34:11.688Z,58.00
2018-07-22T10:36:40.307Z,59.60
2018-07-22T10:39:10.613Z,58.30
2018-07-22T10:41:39.344Z,56.50
2018-07-22T10:44:08.100Z,59.70
2018-07-22T10:46:36.832Z,56.70
2018-07-22T10:49:05.508Z,57.50
2018-07-22T10:51:34.215Z,56.80
2018-07-22T10:54:02.882Z,52.60
2018-07-22T10:56:31.515Z,54.80
2018-07-22T10:59:00.116Z,55.00
2018-07-22T11:01:28.723Z,55.00
2018-07-22T11:03:57.350Z,58.40
2018-07-22T11:06:26.015Z,53.90
2018-07-22T11:08:54.616Z,54.50
2018-07-22T11:11:23.207Z,54.50
2018-07-22T11:13:51.829Z,53.90
2018-07-22T11:16:20.450Z,56.90
2018-07-22T11:18:49.137Z,55.00
2018-07-22T11:21:17.873Z,53.60
2018-07-22T11:23:46.407Z,55.40
2018-07-22T11:26:15.044Z,53.30
2018-07-22T11:28:43.804Z,55.50
2018-07-22T11:31:12.461Z,56.10
2018-07-22T11:33:41.224Z,54.20
2018-07-22T11:36:09.775Z,54.30
2018-07-22T11:38:38.380Z,52.30
2018-07-22T11:41:08.166Z,56.00
2018-07-22T11:43:36.822Z,54.50
2018-07-22T11:46:05.454Z,51.90
2018-07-22T11:48:34.074Z,52.40
2018-07-22T11:51:02.773Z,54.30
2018-07-22T11:55:59.877Z,52.80
2018-07-22T11:58:28.515Z,52.30
2018-07-22T12:03:25.600Z,51.90
2018-07-22T12:05:54.223Z,52.80
2018-07-22T12:08:22.871Z,53.50
2018-07-22T12:10:51.525Z,54.50
2018-07-22T12:13:20.188Z,53.00
2018-07-22T12:15:48.838Z,54.20
2018-07-22T12:18:17.453Z,53.30
2018-07-22T12:20:46.200Z,54.70
2018-07-22T12:23:14.854Z,52.10
2018-07-22T12:25:43.556Z,51.40
2018-07-22T12:28:12.229Z,52.40
2018-07-22T12:30:40.954Z,49.90
2018-07-22T12:33:09.651Z,51.80
2018-07-22T12:35:38.324Z,51.30
2018-07-22T12:38:06.917Z,52.40
2018-07-22T12:40:35.599Z,50.80
2018-07-22T12:43:04.286Z,51.10
2018-07-22T12:45:33.043Z,50.10
2018-07-22T12:48:01.887Z,56.10
2018-07-22T12:50:30.577Z,55.10
2018-07-22T12:52:59.199Z,53.80
2018-07-22T12:55:27.826Z,53.00
2018-07-22T12:57:57.180Z,50.30
2018-07-22T13:00:25.949Z,50.70
2018-07-22T13:02:54.656Z,51.60
2018-07-22T13:05:23.475Z,51.70
2018-07-22T13:07:52.165Z,51.20
2018-07-22T13:10:20.833Z,53.20
2018-07-22T13:12:49.480Z,52.00
2018-07-22T13:15:18.043Z,51.50
2018-07-22T13:17:46.644Z,50.40
2018-07-22T13:20:15.364Z,51.90
2018-07-22T13:22:43.980Z,52.90
2018-07-22T13:25:12.637Z,52.50
2018-07-22T13:27:41.278Z,52.60
2018-07-22T13:30:10.013Z,54.40
2018-07-22T13:32:38.601Z,54.70
2018-07-22T13:35:07.207Z,53.00
2018-07-22T13:37:39.032Z,53.90
2018-07-22T13:40:07.657Z,54.60
2018-07-22T13:42:36.380Z,53.80
2018-07-22T13:45:05.757Z,52.20
2018-07-22T13:47:34.341Z,52.30
2018-07-22T13:50:03.053Z,52.20
2018-07-22T13:52:31.703Z,51.60
2018-07-22T13:55:00.323Z,52.90
2018-07-22T13:57:28.961Z,51.80
2018-07-22T13:59:57.609Z,50.00
2018-07-22T14:02:26.289Z,52.00
2018-07-22T14:04:54.973Z,52.00
2018-07-22T14:07:23.671Z,52.20
2018-07-22T14:09:52.404Z,51.80
2018-07-22T14:12:22.873Z,49.30
2018-07-22T14:14:51.804Z,51.50
2018-07-22T14:17:20.442Z,51.40
2018-07-22T14:19:49.176Z,50.30
2018-07-22T14:22:17.830Z,51.00
2018-07-22T14:24:46.478Z,50.50
2018-07-22T14:27:15.225Z,51.30
2018-07-22T14:29:43.807Z,49.80
2018-07-22T14:32:12.523Z,49.80
2018-07-22T14:34:41.410Z,50.90
2018-07-22T14:37:10.002Z,51.20
2018-07-22T14:39:38.601Z,48.90
2018-07-22T14:42:07.280Z,50.10
2018-07-22T14:44:35.872Z,51.70
2018-07-22T14:47:04.928Z,52.10
2018-07-22T14:49:34.319Z,51.70
2018-07-22T14:52:03.026Z,53.60
2018-07-22T14:54:31.603Z,49.90
2018-07-22T14:57:00.325Z,51.30
2018-07-22T14:59:28.988Z,51.70
2018-07-22T15:01:57.626Z,53.20
2018-07-22T15:04:26.342Z,51.10
2018-07-22T15:06:54.984Z,51.40
2018-07-22T15:09:23.603Z,50.90
2018-07-22T15:11:53.261Z,51.20
2018-07-22T15:14:21.919Z,51.50
2018-07-22T15:16:50.822Z,52.40
2018-07-22T15:19:19.436Z,51.60
2018-07-22T15:21:48.089Z,51.90
2018-07-22T15:24:16.705Z,50.90
2018-07-22T15:26:45.367Z,47.80
2018-07-22T15:29:13.995Z,56.70
2018-07-22T15:31:42.559Z,58.20
2018-07-22T15:34:11.241Z,59.80
2018-07-22T15:36:39.863Z,61.00
2018-07-22T15:39:10.508Z,63.50
2018-07-22T15:41:39.094Z,62.80
2018-07-22T15:44:07.841Z,62.00
2018-07-22T15:46:36.599Z,62.10
2018-07-22T15:49:06.225Z,64.20
2018-07-22T15:51:34.942Z,65.00
2018-07-22T15:54:03.692Z,65.20
2018-07-22T15:56:32.340Z,66.40
2018-07-22T15:59:00.979Z,64.90
2018-07-22T16:01:30.681Z,66.40
2018-07-22T16:03:59.524Z,68.30
2018-07-22T16:06:28.188Z,65.70
2018-07-22T16:08:56.824Z,66.10
2018-07-22T16:11:25.675Z,66.70
2018-07-22T16:13:54.412Z,68.00
2018-07-22T16:16:23.132Z,68.40
2018-07-22T16:18:51.796Z,70.20
2018-07-22T16:21:20.647Z,71.80
2018-07-22T16:23:49.326Z,73.80
2018-07-22T16:26:17.898Z,75.30
2018-07-22T16:28:46.564Z,75.90
2018-07-22T16:31:15.335Z,76.10
2018-07-22T16:33:44.081Z,76.70
2018-07-22T16:36:13.054Z,78.70
2018-07-22T16:38:42.109Z,78.70
2018-07-22T16:41:10.738Z,78.80
2018-07-22T16:43:40.312Z,79.50
2018-07-22T16:46:08.929Z,79.60
2018-07-22T16:48:37.604Z,79.60
2018-07-22T16:51:06.521Z,80.00
2018-07-22T16:53:35.197Z,79.80
2018-07-22T16:58:32.267Z,81.30
2018-07-22T17:01:00.904Z,82.20
2018-07-22T17:03:29.500Z,83.20
2018-07-22T17:05:58.433Z,83.90
2018-07-22T17:08:27.061Z,85.20
2018-07-22T17:10:55.812Z,85.50
2018-07-22T17:13:24.526Z,85.90
2018-07-22T17:15:53.337Z,86.50
2018-07-22T17:18:22.016Z,87.30
2018-07-22T17:20:51.471Z,87.70
2018-07-22T17:23:20.133Z,88.00
2018-07-22T17:25:48.837Z,88.30
2018-07-22T17:28:17.560Z,88.50
2018-07-22T17:30:46.648Z,89.30
2018-07-22T17:33:15.378Z,89.40
2018-07-22T17:35:43.981Z,89.20
2018-07-22T17:38:12.632Z,88.40
2018-07-22T17:40:41.348Z,88.10
2018-07-22T17:43:09.962Z,87.90
2018-07-22T17:45:38.600Z,88.70
2018-07-22T17:48:07.324Z,88.90
2018-07-22T17:50:35.857Z,89.50
2018-07-22T17:53:04.532Z,89.50
2018-07-22T17:55:33.181Z,90.30
2018-07-22T17:58:01.838Z,90.40
2018-07-22T18:00:30.483Z,90.40
2018-07-22T18:03:12.970Z,91.00
2018-07-22T18:05:41.588Z,91.00
2018-07-22T18:08:10.213Z,91.70
2018-07-22T18:10:38.923Z,92.10
2018-07-22T18:13:07.559Z,92.30
2018-07-22T18:15:36.195Z,92.80
2018-07-22T18:18:04.845Z,93.20
2018-07-22T18:20:33.669Z,93.40
2018-07-22T18:23:02.326Z,93.80
2018-07-22T18:25:31.179Z,93.80
2018-07-22T18:28:00.704Z,94.00
2018-07-22T18:30:29.556Z,94.20
2018-07-22T18:32:58.436Z,94.40
2018-07-22T18:35:27.104Z,94.60
2018-07-22T18:37:55.753Z,94.80
2018-07-22T18:40:25.280Z,95.00
2018-07-22T18:42:54.720Z,95.20
2018-07-22T18:45:23.498Z,95.60
2018-07-22T18:47:52.556Z,95.90
2018-07-22T18:50:21.371Z,96.10
2018-07-22T18:52:50.734Z,96.30
2018-07-22T18:55:19.488Z,96.60
2018-07-22T18:57:48.161Z,96.90
2018-07-22T19:00:16.820Z,97.10
2018-07-22T19:02:45.493Z,97.30
2018-07-22T19:05:14.114Z,97.30
2018-07-22T19:07:42.733Z,97.40
2018-07-22T19:10:11.391Z,97.60
2018-07-22T19:12:40.052Z,97.90
2018-07-22T19:15:08.742Z,98.10
2018-07-22T19:17:37.371Z,98.30
2018-07-22T19:20:06.429Z,98.80
2018-07-22T19:22:35.108Z,99.00
2018-07-22T19:25:03.854Z,99.10
2018-07-22T19:27:32.496Z,99.50
2018-07-22T19:30:01.164Z,99.90
2018-07-22T19:32:29.836Z,99.90
2018-07-22T19:34:58.575Z,99.90
2018-07-22T19:37:27.260Z,99.90
2018-07-22T19:39:55.890Z,99.90
2018-07-22T19:42:24.559Z,99.90
2018-07-22T19:44:53.301Z,99.90
2018-07-22T19:47:21.968Z,99.90
2018-07-22T19:49:50.583Z,99.90
2018-07-22T19:52:19.278Z,99.90
2018-07-22T19:54:48.030Z,99.90
2018-07-22T19:57:16.694Z,99.90
2018-07-22T19:59:45.370Z,99.90
2018-07-22T20:02:14.366Z,99.90
2018-07-22T20:04:42.985Z,99.90
2018-07-22T20:07:11.990Z,99.90
2018-07-22T20:09:40.614Z,99.90
2018-07-22T20:12:09.418Z,99.90
2018-07-22T20:14:38.089Z,99.90
2018-07-22T20:17:09.364Z,99.90
2018-07-22T20:19:44.118Z,99.90
2018-07-22T20:22:12.883Z,99.90
2018-07-22T20:24:41.860Z,99.90
2018-07-22T20:27:10.890Z,99.90
2018-07-22T20:29:39.740Z,99.90
2018-07-22T20:32:08.477Z,99.90
2018-07-22T20:34:37.166Z,99.90
2018-07-22T20:37:07.060Z,99.90
2018-07-22T20:39:35.849Z,99.90
2018-07-22T20:42:04.398Z,99.90
2018-07-22T20:44:32.890Z,99.90
2018-07-22T20:47:01.567Z,99.90
2018-07-22T20:49:30.106Z,99.90
2018-07-22T20:51:58.633Z,99.90
2018-07-22T20:54:27.226Z,99.90
2018-07-22T20:56:55.790Z,99.90
2018-07-22T20:59:24.293Z,99.90
2018-07-22T21:01:52.916Z,99.90
2018-07-22T21:04:21.453Z,99.90
2018-07-22T21:06:49.999Z,99.90
2018-07-22T21:09:18.544Z,99.90
2018-07-22T21:13:02.406Z,99.90
2018-07-22T21:15:31.301Z,99.90
2018-07-22T21:17:59.791Z,99.90
2018-07-22T21:20:28.459Z,99.90
2018-07-22T21:22:56.950Z,99.90
2018-07-22T21:25:25.446Z,99.90
2018-07-22T21:27:54.082Z,99.90
2018-07-22T21:30:22.698Z,99.90
2018-07-22T21:32:51.203Z,99.90
2018-07-22T21:35:19.778Z,99.90
2018-07-22T21:37:52.070Z,99.90
2018-07-22T21:40:20.776Z,99.90
2018-07-22T21:42:49.682Z,99.90
2018-07-22T21:45:18.162Z,99.90
2018-07-22T21:47:46.666Z,99.90
2018-07-22T21:50:15.185Z,99.90
2018-07-22T21:52:43.718Z,99.90
2018-07-22T21:55:12.326Z,99.90
2018-07-22T21:57:43.924Z,99.90
2018-07-22T22:02:44.575Z,99.90
2018-07-22T22:05:13.105Z,99.90
2018-07-22T22:07:41.606Z,99.90
2018-07-22T22:10:10.207Z,99.90
2018-07-22T22:12:38.762Z,99.90
2018-07-22T22:15:16.670Z,99.90
2018-07-22T22:17:45.166Z,99.90
2018-07-22T22:20:13.732Z,99.90
2018-07-22T22:22:42.210Z,99.90
2018-07-22T22:25:10.691Z,99.90
2018-07-22T22:27:39.174Z,99.90
2018-07-22T22:30:08.362Z,99.90
2018-07-22T22:32:36.937Z,99.90
2018-07-22T22:35:05.640Z,99.90
2018-07-22T22:37:34.143Z,99.90
2018-07-22T22:40:02.672Z,99.90
2018-07-22T22:42:31.248Z,99.90
2018-07-22T22:44:59.806Z,99.90
2018-07-22T22:47:28.310Z,99.90
2018-07-22T22:49:56.858Z,99.90
2018-07-22T22:52:25.446Z,99.90
2018-07-22T22:54:54.543Z,99.90
2018-07-22T22:57:23.131Z,99.90
2018-07-22T22:59:51.615Z,99.90
2018-07-22T23:02:20.195Z,99.90
2018-07-22T23:04:48.710Z,99.90
2018-07-22T23:07:17.351Z,99.90
2018-07-22T23:09:45.851Z,99.90
2018-07-22T23:12:14.474Z,99.90
2018-07-22T23:14:42.999Z,99.90
2018-07-22T23:17:11.642Z,99.90
2018-07-22T23:19:40.282Z,99.90
2018-07-22T23:22:08.798Z,99.90
2018-07-22T23:24:37.285Z,99.90
2018-07-22T23:27:05.795Z,99.90
2018-07-22T23:29:34.275Z,99.90
2018-07-22T23:32:02.798Z,99.90
2018-07-22T23:34:31.278Z,99.90
2018-07-22T23:37:00.422Z,99.90
2018-07-22T23:39:28.965Z,99.90
2018-07-22T23:41:57.524Z,99.90
2018-07-22T23:44:26.157Z,99.90
2018-07-22T23:46:54.684Z,99.90
2018-07-22T23:49:23.241Z,99.90
2018-07-22T23:51:51.714Z,99.90
2018-07-22T23:54:20.226Z,99.90
2018-07-22T23:56:48.767Z,99.90
2018-07-22T23:59:17.295Z,99.90
